sensor_id;sensor_type;location;lat;lon;timestamp;pressure;altitude;pressure_sealevel;temperature;humidity
36828;BME280;22766;48.042;11.192;2023-04-21T00:01:21;94610.22;;;4.96;100.00
36828;BME280;22766;48.042;11.192;2023-04-21T00:03:51;94622.88;;;4.98;100.00
36828;BME280;22766;48.042;11.192;2023-04-21T00:06:18;94626.53;;;4.95;100.00
36828;BME280;22766;48.042;11.192;2023-04-21T00:08:51;94622.22;;;4.96;100.00
36828;BME280;22766;48.042;11.192;2023-04-21T00:11:18;94620.03;;;4.91;100.00
36828;BME280;22766;48.042;11.192;2023-04-21T00:13:45;94618.16;;;4.93;100.00
36828;BME280;22766;48.042;11.192;2023-04-21T00:16:11;94618.31;;;4.92;100.00
36828;BME280;22766;48.042;11.192;2023-04-21T00:18:38;94626.66;;;4.94;100.00
36828;BME280;22766;48.042;11.192;2023-04-21T00:21:05;94616.44;;;4.94;100.00
36828;BME280;22766;48.042;11.192;2023-04-21T00:23:32;94624.66;;;4.97;100.00
36828;BME280;22766;48.042;11.192;2023-04-21T00:25:58;94613.75;;;4.95;100.00
36828;BME280;22766;48.042;11.192;2023-04-21T00:28:28;94599.06;;;4.97;100.00
36828;BME280;22766;48.042;11.192;2023-04-21T00:30:56;94598.13;;;4.98;100.00
36828;BME280;22766;48.042;11.192;2023-04-21T00:33:25;94593.69;;;5.00;100.00
36828;BME280;22766;48.042;11.192;2023-04-21T00:35:54;94585.34;;;4.98;100.00
36828;BME280;22766;48.042;11.192;2023-04-21T00:38:22;94592.88;;;5.00;100.00
36828;BME280;22766;48.042;11.192;2023-04-21T00:40:49;94588.03;;;4.97;100.00
36828;BME280;22766;48.042;11.192;2023-04-21T00:43:16;94588.03;;;4.97;100.00
36828;BME280;22766;48.042;11.192;2023-04-21T00:45:44;94590.31;;;5.00;100.00
36828;BME280;22766;48.042;11.192;2023-04-21T00:48:12;94601.13;;;5.03;100.00
36828;BME280;22766;48.042;11.192;2023-04-21T00:50:39;94606.47;;;5.00;100.00
36828;BME280;22766;48.042;11.192;2023-04-21T00:53:07;94598.94;;;4.99;100.00
36828;BME280;22766;48.042;11.192;2023-04-21T00:55:35;94595.00;;;4.95;100.00
36828;BME280;22766;48.042;11.192;2023-04-21T00:58:02;94586.16;;;4.99;100.00
36828;BME280;22766;48.042;11.192;2023-04-21T01:00:29;94579.28;;;4.99;100.00
36828;BME280;22766;48.042;11.192;2023-04-21T01:02:56;94575.53;;;5.03;100.00
36828;BME280;22766;48.042;11.192;2023-04-21T01:05:23;94577.41;;;5.01;100.00
36828;BME280;22766;48.042;11.192;2023-04-21T01:07:50;94579.44;;;5.07;100.00
36828;BME280;22766;48.042;11.192;2023-04-21T01:10:17;94576.59;;;5.01;100.00
36828;BME280;22766;48.042;11.192;2023-04-21T01:12:45;94578.59;;;4.97;100.00
36828;BME280;22766;48.042;11.192;2023-04-21T01:15:14;94576.06;;;4.97;100.00
36828;BME280;22766;48.042;11.192;2023-04-21T01:17:42;94569.06;;;4.99;100.00
36828;BME280;22766;48.042;11.192;2023-04-21T01:20:12;94567.28;;;5.00;100.00
36828;BME280;22766;48.042;11.192;2023-04-21T01:22:40;94570.66;;;5.00;100.00
36828;BME280;22766;48.042;11.192;2023-04-21T01:25:08;94579.41;;;4.98;100.00
36828;BME280;22766;48.042;11.192;2023-04-21T01:27:35;94577.94;;;4.95;100.00
36828;BME280;22766;48.042;11.192;2023-04-21T01:30:02;94576.59;;;5.01;100.00
36828;BME280;22766;48.042;11.192;2023-04-21T01:32:32;94578.22;;;5.02;100.00
36828;BME280;22766;48.042;11.192;2023-04-21T01:35:00;94584.56;;;5.07;100.00
36828;BME280;22766;48.042;11.192;2023-04-21T01:37:30;94583.47;;;5.00;100.00
36828;BME280;22766;48.042;11.192;2023-04-21T01:39:59;94578.47;;;4.99;100.00
36828;BME280;22766;48.042;11.192;2023-04-21T01:42:27;94564.63;;;5.01;100.00
36828;BME280;22766;48.042;11.192;2023-04-21T01:44:56;94571.47;;;5.01;100.00
36828;BME280;22766;48.042;11.192;2023-04-21T01:47:24;94571.22;;;5.04;100.00
36828;BME280;22766;48.042;11.192;2023-04-21T01:49:51;94572.97;;;5.03;100.00
36828;BME280;22766;48.042;11.192;2023-04-21T01:52:18;94565.69;;;4.99;100.00
36828;BME280;22766;48.042;11.192;2023-04-21T01:54:45;94562.75;;;5.03;100.00
36828;BME280;22766;48.042;11.192;2023-04-21T01:57:13;94565.19;;;5.05;100.00
36828;BME280;22766;48.042;11.192;2023-04-21T01:59:40;94553.19;;;5.05;100.00
36828;BME280;22766;48.042;11.192;2023-04-21T02:02:06;94556.41;;;5.07;100.00
36828;BME280;22766;48.042;11.192;2023-04-21T02:04:34;94561.25;;;5.01;100.00
36828;BME280;22766;48.042;11.192;2023-04-21T02:07:01;94562.75;;;5.03;100.00
36828;BME280;22766;48.042;11.192;2023-04-21T02:09:28;94558.41;;;5.04;100.00
36828;BME280;22766;48.042;11.192;2023-04-21T02:11:55;94562.47;;;5.06;100.00
36828;BME280;22766;48.042;11.192;2023-04-21T02:14:26;94560.44;;;5.00;100.00
36828;BME280;22766;48.042;11.192;2023-04-21T02:16:53;94556.28;;;4.99;100.00
36828;BME280;22766;48.042;11.192;2023-04-21T02:19:22;94556.91;;;4.92;100.00
36828;BME280;22766;48.042;11.192;2023-04-21T02:21:49;94553.16;;;4.96;100.00
36828;BME280;22766;48.042;11.192;2023-04-21T02:24:15;94560.03;;;4.95;100.00
36828;BME280;22766;48.042;11.192;2023-04-21T02:26:44;94555.59;;;4.97;100.00
36828;BME280;22766;48.042;11.192;2023-04-21T02:29:11;94556.91;;;4.92;100.00
36828;BME280;22766;48.042;11.192;2023-04-21T02:31:38;94556.91;;;4.92;100.00
36828;BME280;22766;48.042;11.192;2023-04-21T02:34:23;94556.66;;;4.95;100.00
36828;BME280;22766;48.042;11.192;2023-04-21T02:36:49;94560.84;;;4.96;100.00
36828;BME280;22766;48.042;11.192;2023-04-21T02:39:17;94560.94;;;4.94;100.00
36828;BME280;22766;48.042;11.192;2023-04-21T02:41:44;94559.06;;;4.96;100.00
36828;BME280;22766;48.042;11.192;2023-04-21T02:44:11;94561.50;;;4.98;100.00
36828;BME280;22766;48.042;11.192;2023-04-21T02:46:41;94567.69;;;4.95;100.00
36828;BME280;22766;48.042;11.192;2023-04-21T02:49:11;94565.69;;;4.99;100.00
36828;BME280;22766;48.042;11.192;2023-04-21T02:51:37;94562.44;;;4.97;100.00
36828;BME280;22766;48.042;11.192;2023-04-21T02:54:04;94559.38;;;5.03;100.00
36828;BME280;22766;48.042;11.192;2023-04-21T02:56:31;94563.66;;;5.02;100.00
36828;BME280;22766;48.042;11.192;2023-04-21T02:59:00;94560.19;;;5.03;100.00
36828;BME280;22766;48.042;11.192;2023-04-21T03:01:26;94558.28;;;4.96;100.00
36828;BME280;22766;48.042;11.192;2023-04-21T03:03:53;94561.06;;;4.93;100.00
36828;BME280;22766;48.042;11.192;2023-04-21T03:06:20;94553.28;;;4.94;100.00
36828;BME280;22766;48.042;11.192;2023-04-21T03:08:46;94558.16;;;4.97;100.00
36828;BME280;22766;48.042;11.192;2023-04-21T03:11:13;94548.59;;;4.99;100.00
36828;BME280;22766;48.042;11.192;2023-04-21T03:13:40;94548.69;;;4.98;100.00
36828;BME280;22766;48.042;11.192;2023-04-21T03:16:07;94545.34;;;4.97;100.00
36828;BME280;22766;48.042;11.192;2023-04-21T03:18:34;94551.94;;;5.00;100.00
36828;BME280;22766;48.042;11.192;2023-04-21T03:21:01;94549.28;;;5.01;100.00
36828;BME280;22766;48.042;11.192;2023-04-21T03:23:29;94543.22;;;5.02;100.00
36828;BME280;22766;48.042;11.192;2023-04-21T03:25:55;94536.88;;;4.97;100.00
36828;BME280;22766;48.042;11.192;2023-04-21T03:28:22;94539.41;;;4.97;100.00
36828;BME280;22766;48.042;11.192;2023-04-21T03:30:50;94527.69;;;4.94;100.00
36828;BME280;22766;48.042;11.192;2023-04-21T03:33:17;94523.66;;;4.92;100.00
36828;BME280;22766;48.042;11.192;2023-04-21T03:35:44;94519.88;;;4.86;100.00
36828;BME280;22766;48.042;11.192;2023-04-21T03:38:11;94520.66;;;4.87;100.00
36828;BME280;22766;48.042;11.192;2023-04-21T03:40:38;94519.59;;;4.89;100.00
36828;BME280;22766;48.042;11.192;2023-04-21T03:43:05;94535.91;;;4.88;100.00
36828;BME280;22766;48.042;11.192;2023-04-21T03:45:34;94552.84;;;4.89;100.00
36828;BME280;22766;48.042;11.192;2023-04-21T03:48:01;94558.78;;;4.90;100.00
36828;BME280;22766;48.042;11.192;2023-04-21T03:50:29;94556.09;;;4.91;100.00
36828;BME280;22766;48.042;11.192;2023-04-21T03:52:56;94557.59;;;4.94;100.00
36828;BME280;22766;48.042;11.192;2023-04-21T03:55:22;94552.34;;;4.95;100.00
36828;BME280;22766;48.042;11.192;2023-04-21T03:57:49;94558.69;;;5.01;100.00
36828;BME280;22766;48.042;11.192;2023-04-21T04:00:15;94555.16;;;4.92;100.00
36828;BME280;22766;48.042;11.192;2023-04-21T04:02:43;94545.41;;;4.77;100.00
36828;BME280;22766;48.042;11.192;2023-04-21T04:05:10;94547.13;;;4.66;100.00
36828;BME280;22766;48.042;11.192;2023-04-21T04:07:37;94551.38;;;4.56;100.00
36828;BME280;22766;48.042;11.192;2023-04-21T04:10:04;94550.25;;;4.49;100.00
36828;BME280;22766;48.042;11.192;2023-04-21T04:12:31;94544.28;;;4.39;100.00
36828;BME280;22766;48.042;11.192;2023-04-21T04:14:57;94542.34;;;4.32;100.00
36828;BME280;22766;48.042;11.192;2023-04-21T04:17:24;94550.50;;;4.26;100.00
36828;BME280;22766;48.042;11.192;2023-04-21T04:19:51;94554.63;;;4.17;100.00
36828;BME280;22766;48.042;11.192;2023-04-21T04:22:17;94554.88;;;4.14;100.00
36828;BME280;22766;48.042;11.192;2023-04-21T04:24:44;94555.81;;;4.13;100.00
36828;BME280;22766;48.042;11.192;2023-04-21T04:27:11;94563.84;;;4.09;100.00
36828;BME280;22766;48.042;11.192;2023-04-21T04:29:39;94550.38;;;4.07;100.00
36828;BME280;22766;48.042;11.192;2023-04-21T04:32:07;94549.13;;;4.01;100.00
36828;BME280;22766;48.042;11.192;2023-04-21T04:34:36;94539.19;;;3.98;100.00
36828;BME280;22766;48.042;11.192;2023-04-21T04:37:03;94544.41;;;3.97;100.00
36828;BME280;22766;48.042;11.192;2023-04-21T04:39:30;94548.97;;;3.93;100.00
36828;BME280;22766;48.042;11.192;2023-04-21T04:41:57;94558.38;;;3.93;100.00
36828;BME280;22766;48.042;11.192;2023-04-21T04:44:24;94559.97;;;3.94;100.00
36828;BME280;22766;48.042;11.192;2023-04-21T04:46:51;94563.34;;;3.94;100.00
36828;BME280;22766;48.042;11.192;2023-04-21T04:49:18;94556.50;;;3.95;100.00
36828;BME280;22766;48.042;11.192;2023-04-21T04:51:46;94573.19;;;3.99;100.00
36828;BME280;22766;48.042;11.192;2023-04-21T04:54:12;94574.94;;;3.98;100.00
36828;BME280;22766;48.042;11.192;2023-04-21T04:56:39;94569.00;;;3.98;100.00
36828;BME280;22766;48.042;11.192;2023-04-21T04:59:06;94577.38;;;4.00;100.00
36828;BME280;22766;48.042;11.192;2023-04-21T05:01:32;94572.25;;;4.00;100.00
36828;BME280;22766;48.042;11.192;2023-04-21T05:03:59;94568.88;;;3.99;100.00
36828;BME280;22766;48.042;11.192;2023-04-21T05:06:27;94566.22;;;4.01;100.00
36828;BME280;22766;48.042;11.192;2023-04-21T05:08:54;94573.75;;;4.02;100.00
36828;BME280;22766;48.042;11.192;2023-04-21T05:11:21;94574.59;;;4.03;100.00
36828;BME280;22766;48.042;11.192;2023-04-21T05:13:48;94576.19;;;4.04;100.00
36828;BME280;22766;48.042;11.192;2023-04-21T05:16:15;94581.72;;;4.09;100.00
36828;BME280;22766;48.042;11.192;2023-04-21T05:18:42;94585.44;;;4.16;100.00
36828;BME280;22766;48.042;11.192;2023-04-21T05:21:08;94586.13;;;4.18;100.00
36828;BME280;22766;48.042;11.192;2023-04-21T05:23:35;94580.75;;;4.21;100.00
36828;BME280;22766;48.042;11.192;2023-04-21T05:26:02;94582.25;;;4.23;100.00
36828;BME280;22766;48.042;11.192;2023-04-21T05:28:30;94580.81;;;4.30;100.00
36828;BME280;22766;48.042;11.192;2023-04-21T05:30:57;94576.69;;;4.39;100.00
36828;BME280;22766;48.042;11.192;2023-04-21T05:33:24;94573.06;;;4.41;100.00
36828;BME280;22766;48.042;11.192;2023-04-21T05:35:52;94581.75;;;4.50;100.00
36828;BME280;22766;48.042;11.192;2023-04-21T05:38:18;94587.53;;;4.52;100.00
36828;BME280;22766;48.042;11.192;2023-04-21T05:40:52;94581.13;;;4.57;100.00
36828;BME280;22766;48.042;11.192;2023-04-21T05:43:19;94579.94;;;4.61;100.00
36828;BME280;22766;48.042;11.192;2023-04-21T05:45:46;94586.16;;;4.68;100.00
36828;BME280;22766;48.042;11.192;2023-04-21T05:48:13;94591.53;;;4.75;100.00
36828;BME280;22766;48.042;11.192;2023-04-21T05:50:40;94589.56;;;4.79;100.00
36828;BME280;22766;48.042;11.192;2023-04-21T05:53:07;94583.25;;;4.83;100.00
36828;BME280;22766;48.042;11.192;2023-04-21T05:55:36;94578.56;;;4.88;100.00
36828;BME280;22766;48.042;11.192;2023-04-21T05:58:03;94583.72;;;4.97;100.00
36828;BME280;22766;48.042;11.192;2023-04-21T06:00:30;94586.47;;;5.05;100.00
36828;BME280;22766;48.042;11.192;2023-04-21T06:02:57;94589.28;;;5.12;100.00
36828;BME280;22766;48.042;11.192;2023-04-21T06:05:24;94587.56;;;5.12;100.00
36828;BME280;22766;48.042;11.192;2023-04-21T06:07:51;94580.16;;;5.19;100.00
36828;BME280;22766;48.042;11.192;2023-04-21T06:10:18;94581.41;;;5.34;100.00
36828;BME280;22766;48.042;11.192;2023-04-21T06:12:44;94584.81;;;5.44;100.00
36828;BME280;22766;48.042;11.192;2023-04-21T06:15:11;94587.13;;;5.56;100.00
36828;BME280;22766;48.042;11.192;2023-04-21T06:17:38;94581.22;;;5.65;100.00
36828;BME280;22766;48.042;11.192;2023-04-21T06:20:06;94586.06;;;5.78;100.00
36828;BME280;22766;48.042;11.192;2023-04-21T06:22:33;94584.19;;;5.70;100.00
36828;BME280;22766;48.042;11.192;2023-04-21T06:24:59;94594.81;;;5.76;100.00
36828;BME280;22766;48.042;11.192;2023-04-21T06:27:26;94583.94;;;5.93;100.00
36828;BME280;22766;48.042;11.192;2023-04-21T06:29:54;94586.78;;;5.99;100.00
36828;BME280;22766;48.042;11.192;2023-04-21T06:32:21;94599.75;;;6.07;100.00
36828;BME280;22766;48.042;11.192;2023-04-21T06:34:48;94598.13;;;6.06;100.00
36828;BME280;22766;48.042;11.192;2023-04-21T06:37:14;94593.28;;;6.13;100.00
36828;BME280;22766;48.042;11.192;2023-04-21T06:39:41;94592.31;;;6.23;100.00
36828;BME280;22766;48.042;11.192;2023-04-21T06:42:08;94588.28;;;6.40;100.00
36828;BME280;22766;48.042;11.192;2023-04-21T06:44:41;94592.28;;;6.42;100.00
36828;BME280;22766;48.042;11.192;2023-04-21T06:47:07;94585.38;;;6.62;100.00
36828;BME280;22766;48.042;11.192;2023-04-21T06:49:34;94586.22;;;6.63;100.00
36828;BME280;22766;48.042;11.192;2023-04-21T06:52:03;94577.56;;;6.63;100.00
36828;BME280;22766;48.042;11.192;2023-04-21T06:54:29;94567.78;;;6.77;100.00
36828;BME280;22766;48.042;11.192;2023-04-21T06:56:56;94568.72;;;6.85;100.00
36828;BME280;22766;48.042;11.192;2023-04-21T06:59:23;94572.03;;;6.95;100.00
36828;BME280;22766;48.042;11.192;2023-04-21T07:01:50;94565.50;;;6.83;100.00
36828;BME280;22766;48.042;11.192;2023-04-21T07:04:18;94573.78;;;7.04;100.00
36828;BME280;22766;48.042;11.192;2023-04-21T07:06:45;94580.25;;;7.08;100.00
36828;BME280;22766;48.042;11.192;2023-04-21T07:09:12;94571.09;;;7.33;100.00
36828;BME280;22766;48.042;11.192;2023-04-21T07:11:39;94577.84;;;7.79;100.00
36828;BME280;22766;48.042;11.192;2023-04-21T07:14:06;94577.06;;;7.96;100.00
36828;BME280;22766;48.042;11.192;2023-04-21T07:16:32;94580.34;;;8.06;100.00
36828;BME280;22766;48.042;11.192;2023-04-21T07:18:59;94581.44;;;8.21;100.00
36828;BME280;22766;48.042;11.192;2023-04-21T07:21:26;94585.44;;;8.76;100.00
36828;BME280;22766;48.042;11.192;2023-04-21T07:23:52;94585.16;;;8.87;100.00
36828;BME280;22766;48.042;11.192;2023-04-21T07:26:19;94573.44;;;9.60;100.00
36828;BME280;22766;48.042;11.192;2023-04-21T07:28:46;94583.22;;;9.98;100.00
36828;BME280;22766;48.042;11.192;2023-04-21T07:31:12;94582.75;;;9.45;100.00
36828;BME280;22766;48.042;11.192;2023-04-21T07:33:39;94574.69;;;9.48;100.00
36828;BME280;22766;48.042;11.192;2023-04-21T07:36:06;94575.16;;;9.10;100.00
36828;BME280;22766;48.042;11.192;2023-04-21T07:38:33;94574.88;;;8.62;100.00
36828;BME280;22766;48.042;11.192;2023-04-21T07:41:00;94570.09;;;8.67;100.00
36828;BME280;22766;48.042;11.192;2023-04-21T07:43:26;94576.06;;;8.67;100.00
36828;BME280;22766;48.042;11.192;2023-04-21T07:45:56;94586.13;;;9.12;100.00
36828;BME280;22766;48.042;11.192;2023-04-21T07:48:23;94585.44;;;8.76;100.00
36828;BME280;22766;48.042;11.192;2023-04-21T07:50:49;94580.78;;;8.80;100.00
36828;BME280;22766;48.042;11.192;2023-04-21T07:53:16;94585.44;;;8.51;100.00
36828;BME280;22766;48.042;11.192;2023-04-21T07:55:43;94582.03;;;8.76;100.00
36828;BME280;22766;48.042;11.192;2023-04-21T07:58:09;94580.19;;;9.11;100.00
36828;BME280;22766;48.042;11.192;2023-04-21T08:00:36;94573.47;;;9.68;100.00
36828;BME280;22766;48.042;11.192;2023-04-21T08:03:03;94572.13;;;10.22;100.00
36828;BME280;22766;48.042;11.192;2023-04-21T08:05:30;94570.41;;;10.39;100.00
36828;BME280;22766;48.042;11.192;2023-04-21T08:08:03;94575.06;;;10.19;100.00
36828;BME280;22766;48.042;11.192;2023-04-21T08:10:30;94576.28;;;10.07;100.00
36828;BME280;22766;48.042;11.192;2023-04-21T08:13:12;94583.25;;;10.14;100.00
36828;BME280;22766;48.042;11.192;2023-04-21T08:15:38;94572.16;;;10.14;100.00
36828;BME280;22766;48.042;11.192;2023-04-21T08:18:05;94576.16;;;10.08;100.00
36828;BME280;22766;48.042;11.192;2023-04-21T08:20:32;94578.09;;;10.06;100.00
36828;BME280;22766;48.042;11.192;2023-04-21T08:22:59;94569.28;;;9.67;100.00
36828;BME280;22766;48.042;11.192;2023-04-21T08:25:25;94566.47;;;9.44;100.00
36828;BME280;22766;48.042;11.192;2023-04-21T08:27:52;94562.69;;;9.65;100.00
36828;BME280;22766;48.042;11.192;2023-04-21T08:30:19;94561.34;;;10.18;100.00
36828;BME280;22766;48.042;11.192;2023-04-21T08:32:46;94557.81;;;10.27;100.00
36828;BME280;22766;48.042;11.192;2023-04-21T08:35:12;94561.59;;;9.83;100.00
36828;BME280;22766;48.042;11.192;2023-04-21T08:37:39;94556.38;;;10.33;100.00
36828;BME280;22766;48.042;11.192;2023-04-21T08:40:07;94559.03;;;9.99;100.00
36828;BME280;22766;48.042;11.192;2023-04-21T08:42:34;94557.06;;;9.77;100.00
36828;BME280;22766;48.042;11.192;2023-04-21T08:45:02;94552.47;;;10.13;100.00
36828;BME280;22766;48.042;11.192;2023-04-21T08:47:31;94551.03;;;10.26;100.00
36828;BME280;22766;48.042;11.192;2023-04-21T08:49:58;94562.50;;;10.48;100.00
36828;BME280;22766;48.042;11.192;2023-04-21T08:52:25;94551.66;;;10.61;100.00
36828;BME280;22766;48.042;11.192;2023-04-21T08:54:51;94551.66;;;10.61;100.00
36828;BME280;22766;48.042;11.192;2023-04-21T08:57:18;94547.63;;;10.74;100.00
36828;BME280;22766;48.042;11.192;2023-04-21T08:59:45;94542.47;;;10.58;100.00
36828;BME280;22766;48.042;11.192;2023-04-21T09:02:16;94548.91;;;10.70;100.00
36828;BME280;22766;48.042;11.192;2023-04-21T09:04:49;94547.63;;;10.58;100.00
36828;BME280;22766;48.042;11.192;2023-04-21T09:07:30;94545.34;;;10.79;100.00
36828;BME280;22766;48.042;11.192;2023-04-21T09:09:58;94546.97;;;10.80;100.00
36828;BME280;22766;48.042;11.192;2023-04-21T09:12:26;94540.16;;;10.87;100.00
36828;BME280;22766;48.042;11.192;2023-04-21T09:14:53;94540.34;;;10.78;100.00
36828;BME280;22766;48.042;11.192;2023-04-21T09:17:22;94549.56;;;10.64;100.00
36828;BME280;22766;48.042;11.192;2023-04-21T09:19:54;94548.94;;;10.54;100.00
36828;BME280;22766;48.042;11.192;2023-04-21T09:22:26;94542.63;;;10.65;100.00
36828;BME280;22766;48.042;11.192;2023-04-21T09:24:57;94545.22;;;10.65;100.00
36828;BME280;22766;48.042;11.192;2023-04-21T09:27:27;94537.88;;;11.00;100.00
36828;BME280;22766;48.042;11.192;2023-04-21T09:29:54;94542.47;;;11.29;100.00
36828;BME280;22766;48.042;11.192;2023-04-21T09:32:21;94543.81;;;11.56;100.00
36828;BME280;22766;48.042;11.192;2023-04-21T09:34:48;94546.38;;;11.56;100.00
36828;BME280;22766;48.042;11.192;2023-04-21T09:37:14;94552.69;;;11.53;100.00
36828;BME280;22766;48.042;11.192;2023-04-21T09:39:45;94550.22;;;11.21;100.00
36828;BME280;22766;48.042;11.192;2023-04-21T09:42:31;94553.53;;;11.46;100.00
36828;BME280;22766;48.042;11.192;2023-04-21T09:45:02;94552.25;;;11.42;100.00
36828;BME280;22766;48.042;11.192;2023-04-21T09:47:49;94553.78;;;11.67;100.00
36828;BME280;22766;48.042;11.192;2023-04-21T09:50:18;94547.06;;;11.88;100.00
36828;BME280;22766;48.042;11.192;2023-04-21T09:53:06;94551.09;;;11.91;100.00
36828;BME280;22766;48.042;11.192;2023-04-21T09:55:35;94553.28;;;12.02;100.00
36828;BME280;22766;48.042;11.192;2023-04-21T09:58:05;94552.09;;;11.43;100.00
36828;BME280;22766;48.042;11.192;2023-04-21T10:00:32;94550.72;;;11.71;100.00
36828;BME280;22766;48.042;11.192;2023-04-21T10:03:04;94548.78;;;11.96;100.00
36828;BME280;22766;48.042;11.192;2023-04-21T10:05:37;94542.56;;;12.05;100.00
36828;BME280;22766;48.042;11.192;2023-04-21T10:08:08;94536.03;;;12.17;100.00
36828;BME280;22766;48.042;11.192;2023-04-21T10:10:37;94537.53;;;12.34;100.00
36828;BME280;22766;48.042;11.192;2023-04-21T10:13:05;94525.81;;;12.75;100.00
36828;BME280;22766;48.042;11.192;2023-04-21T10:15:40;94529.09;;;13.21;100.00
36828;BME280;22766;48.042;11.192;2023-04-21T10:18:21;94527.47;;;13.64;100.00
36828;BME280;22766;48.042;11.192;2023-04-21T10:23:34;94526.56;;;14.28;100.00
36828;BME280;22766;48.042;11.192;2023-04-21T10:28:38;94518.56;;;15.06;100.00
36828;BME280;22766;48.042;11.192;2023-04-21T10:39:08;94515.75;;;15.76;93.46
36828;BME280;22766;48.042;11.192;2023-04-21T10:41:38;94510.72;;;15.74;90.18
36828;BME280;22766;48.042;11.192;2023-04-21T10:44:15;94517.69;;;15.67;86.80
36828;BME280;22766;48.042;11.192;2023-04-21T10:46:50;94509.72;;;15.75;90.26
36828;BME280;22766;48.042;11.192;2023-04-21T10:49:28;94509.13;;;15.33;96.49
36828;BME280;22766;48.042;11.192;2023-04-21T10:57:13;94497.09;;;16.65;87.70
36828;BME280;22766;48.042;11.192;2023-04-21T10:59:41;94499.69;;;16.78;93.42
36828;BME280;22766;48.042;11.192;2023-04-21T11:02:10;94489.44;;;17.67;92.85
36828;BME280;22766;48.042;11.192;2023-04-21T11:04:37;94498.09;;;17.61;77.45
36828;BME280;22766;48.042;11.192;2023-04-21T11:07:17;94487.19;;;18.15;83.05
36828;BME280;22766;48.042;11.192;2023-04-21T11:09:46;94484.75;;;18.76;73.03
36828;BME280;22766;48.042;11.192;2023-04-21T11:12:15;94486.81;;;19.71;60.70
36828;BME280;22766;48.042;11.192;2023-04-21T11:14:44;94482.81;;;20.45;61.98
36828;BME280;22766;48.042;11.192;2023-04-21T11:17:15;94481.75;;;21.11;58.29
36828;BME280;22766;48.042;11.192;2023-04-21T11:19:50;94475.69;;;21.22;53.05
36828;BME280;22766;48.042;11.192;2023-04-21T11:22:25;94469.69;;;21.73;48.64
36828;BME280;22766;48.042;11.192;2023-04-21T11:24:53;94471.16;;;22.37;46.20
36828;BME280;22766;48.042;11.192;2023-04-21T11:27:21;94468.34;;;21.59;42.35
36828;BME280;22766;48.042;11.192;2023-04-21T11:29:49;94468.16;;;21.88;42.44
36828;BME280;22766;48.042;11.192;2023-04-21T11:32:16;94465.06;;;22.19;43.81
36828;BME280;22766;48.042;11.192;2023-04-21T11:34:43;94463.81;;;22.22;42.55
36828;BME280;22766;48.042;11.192;2023-04-21T11:37:16;94457.78;;;22.55;41.72
36828;BME280;22766;48.042;11.192;2023-04-21T11:39:43;94455.47;;;23.08;39.89
36828;BME280;22766;48.042;11.192;2023-04-21T11:42:09;94462.97;;;23.54;37.80
36828;BME280;22766;48.042;11.192;2023-04-21T11:44:39;94468.44;;;23.69;36.72
36828;BME280;22766;48.042;11.192;2023-04-21T11:47:18;94461.22;;;23.81;36.72
36828;BME280;22766;48.042;11.192;2023-04-21T11:49:46;94463.78;;;23.98;38.16
36828;BME280;22766;48.042;11.192;2023-04-21T11:52:42;94456.13;;;24.18;37.78
36828;BME280;22766;48.042;11.192;2023-04-21T11:55:12;94452.63;;;23.69;37.36
36828;BME280;22766;48.042;11.192;2023-04-21T11:57:43;94439.66;;;23.08;37.88
36828;BME280;22766;48.042;11.192;2023-04-21T12:00:11;94451.09;;;23.95;37.14
36828;BME280;22766;48.042;11.192;2023-04-21T12:02:42;94448.13;;;24.13;36.30
36828;BME280;22766;48.042;11.192;2023-04-21T12:05:11;94452.03;;;23.84;38.50
36828;BME280;22766;48.042;11.192;2023-04-21T12:07:43;94443.69;;;24.19;37.66
36828;BME280;22766;48.042;11.192;2023-04-21T12:10:11;94445.56;;;24.76;36.37
36828;BME280;22766;48.042;11.192;2023-04-21T12:12:39;94451.44;;;24.83;34.84
36828;BME280;22766;48.042;11.192;2023-04-21T12:15:08;94440.59;;;24.85;34.71
36828;BME280;22766;48.042;11.192;2023-04-21T12:17:48;94440.72;;;25.42;36.25
36828;BME280;22766;48.042;11.192;2023-04-21T12:20:18;94453.09;;;25.83;35.30
36828;BME280;22766;48.042;11.192;2023-04-21T12:22:45;94446.94;;;26.64;33.88
36828;BME280;22766;48.042;11.192;2023-04-21T12:25:12;94440.50;;;26.10;32.71
36828;BME280;22766;48.042;11.192;2023-04-21T12:27:49;94434.19;;;24.44;32.92
36828;BME280;22766;48.042;11.192;2023-04-21T12:30:17;94440.41;;;25.38;35.55
36828;BME280;22766;48.042;11.192;2023-04-21T12:32:44;94433.41;;;26.56;33.79
36828;BME280;22766;48.042;11.192;2023-04-21T12:35:11;94437.38;;;26.23;31.64
36828;BME280;22766;48.042;11.192;2023-04-21T12:37:38;94438.22;;;26.74;32.04
36828;BME280;22766;48.042;11.192;2023-04-21T12:40:05;94442.16;;;26.66;31.72
36828;BME280;22766;48.042;11.192;2023-04-21T12:42:33;94439.97;;;26.08;30.96
36828;BME280;22766;48.042;11.192;2023-04-21T12:45:03;94441.75;;;25.92;30.76
36828;BME280;22766;48.042;11.192;2023-04-21T12:47:30;94438.63;;;26.06;31.59
36828;BME280;22766;48.042;11.192;2023-04-21T12:49:57;94433.13;;;26.17;31.82
36828;BME280;22766;48.042;11.192;2023-04-21T12:52:24;94438.22;;;26.74;30.91
36828;BME280;22766;48.042;11.192;2023-04-21T12:54:52;94436.28;;;27.30;30.30
36828;BME280;22766;48.042;11.192;2023-04-21T12:57:19;94441.88;;;27.23;30.14
36828;BME280;22766;48.042;11.192;2023-04-21T12:59:47;94427.28;;;27.31;31.82
36828;BME280;22766;48.042;11.192;2023-04-21T13:02:14;94435.81;;;27.08;32.85
36828;BME280;22766;48.042;11.192;2023-04-21T13:04:41;94434.47;;;28.09;29.83
36828;BME280;22766;48.042;11.192;2023-04-21T13:07:08;94431.78;;;28.58;27.28
36828;BME280;22766;48.042;11.192;2023-04-21T13:09:35;94430.34;;;28.76;29.29
36828;BME280;22766;48.042;11.192;2023-04-21T13:12:02;94432.34;;;29.75;28.87